Tunnel Hill, GA

05:35 EDT, 22. Oktaber, 2014 (GMT -0400)
Mt Vernon | Change Station
CLOSE
Current Station
Personal Weather Stations
Location: Tunnel Hill, GA
Böyiklik: 904 ft
Nearby Weather Stations

Elev 904 ft 34.81 °N, 85.05 °W | Updated 5 seconds ago

Ayaz
Ayaz
40.9 °F
Feels Like 41 °F
N
0.2
Cel Üzgärüçän Cel from TTÇ
Gusts 1.1 mil/seğ

Bogön
High -- | Low -- °F
--% Chance of Precip.
Kiçä
High -- | Low -- °F
Precip. -- in
7:51 AM 6:56 PM
Waning Crescent, 2% visible
Basım 30.10 in
Köriniwçenlik 10.0 mil
Bolıtlı Ayaz
Cel köçi 41 °F
Çıq noqtası 36 °F
Dımlıq 84%
Rainfall 0.00 in
Qar bieklege Not available.
UV 0 out of 12
Pollen 2.20 out of 12
Hawa Sífatı Not available.
Flu Activity Sporadic
METAR KDNN 220915Z AUTO 33006KT 10SM CLR 07/06 A3010 RMK AO2

More Conditions Fewer Conditions

Basım 30.10 in
Köriniwçenlik 10.0 mil
Bolıtlı Ayaz
Cel köçi 41 °F
Çıq noqtası 36 °F
Dımlıq 84%
Rainfall 0.00 in
Qar bieklege Not available.
UV 0 out of 12
Pollen 2.20 out of 12
Hawa Sífatı Not available.
Flu Activity Sporadic
METAR KDNN 220915Z AUTO 33006KT 10SM CLR 07/06 A3010 RMK AO2

More Conditions Fewer Conditions

10-Day Weather Forecast

Almanac

Kükbelem

Oct. 22, 2014 Rise Set
Anıñ çağı 07:51 EDT 18:56 EDT
Tormışlı qaranğı 07:26 EDT 19:22 EDT
Diñgezdä qarañğı 06:56 EDT 19:51 EDT
Küktä qarañğı 06:27 EDT 20:21 EDT
Ay 06:35 EDT 18:21 EDT
Kürenmäle yaqtı ozınlığı 11h 56m
Kön ozınlığı
11h 04m
Tomorrow will be 2m 1s shorter.
Waning Crescent, 2% of the Moon is Illuminated
Bogön
Waning Crescent
Oct 23
New
Oct 30
Berençe çirek
Nov 6
Tulı
Nov 14
Soñğı çirek

Today's Extremes

State Highs State Lows

Community

WunderPhotos

Upload Photos

1,763,900 photos uploaded!

Nearby

Qar terenligi

Station Depth Böyiklik
No new snow has been reported.

Earthquake Activity

Qala Distance Mag. Time & Date
No recent earthquake activity has been reported nearby.
Minimum magnitude displayed is 2.5.

Coastal Water Temperatures

Orın Cılılıq
No Stations Reporting

Nearby Weather Stations